createdAt,value
2023-05-09T00:02:20.980Z,97.58
2023-05-09T00:04:47.912Z,97.75
2023-05-09T00:07:14.771Z,97.04
2023-05-09T00:09:41.531Z,97.35
2023-05-09T00:12:08.373Z,97.74
2023-05-09T00:14:35.100Z,97.11
2023-05-09T00:17:01.869Z,97.58
2023-05-09T00:19:28.532Z,97.92
2023-05-09T00:21:55.756Z,98.46
2023-05-09T00:24:24.583Z,96.61
2023-05-09T00:26:51.352Z,96.95
2023-05-09T00:29:18.060Z,97.62
2023-05-09T00:31:44.825Z,97.86
2023-05-09T00:34:11.549Z,97.56
2023-05-09T00:36:38.240Z,98.79
2023-05-09T00:39:05.734Z,99.46
2023-05-09T00:41:32.531Z,98.56
2023-05-09T00:43:59.360Z,97.10
2023-05-09T00:46:26.174Z,98.05
2023-05-09T00:48:53.057Z,100.00
2023-05-09T00:51:20.712Z,100.00
2023-05-09T00:53:47.481Z,100.00
2023-05-09T00:56:15.241Z,100.00
2023-05-09T00:58:42.209Z,100.00
2023-05-09T01:01:09.030Z,100.00
2023-05-09T01:03:36.812Z,100.00
2023-05-09T01:06:17.904Z,100.00
2023-05-09T01:09:00.070Z,100.00
2023-05-09T01:11:34.131Z,100.00
2023-05-09T01:14:19.761Z,100.00
2023-05-09T01:17:04.224Z,100.00
2023-05-09T01:19:57.096Z,100.00
2023-05-09T01:22:32.135Z,100.00
2023-05-09T01:25:06.920Z,100.00
2023-05-09T01:27:49.285Z,100.00
2023-05-09T01:30:17.461Z,100.00
2023-05-09T01:32:50.223Z,100.00
2023-05-09T01:35:18.170Z,100.00
2023-05-09T01:37:50.549Z,100.00
2023-05-09T01:40:20.960Z,100.00
2023-05-09T01:42:57.789Z,100.00
2023-05-09T01:45:26.497Z,100.00
2023-05-09T01:47:54.320Z,100.00
2023-05-09T01:50:22.579Z,100.00
2023-05-09T01:52:52.034Z,100.00
2023-05-09T01:55:21.714Z,100.00
2023-05-09T01:57:49.361Z,100.00
2023-05-09T02:00:17.141Z,100.00
2023-05-09T02:02:44.447Z,100.00
2023-05-09T02:05:14.675Z,100.00
2023-05-09T02:07:42.481Z,100.00
2023-05-09T02:10:10.457Z,100.00
2023-05-09T02:12:37.272Z,100.00
2023-05-09T02:15:05.493Z,100.00
2023-05-09T02:17:32.465Z,100.00
2023-05-09T02:19:59.333Z,100.00
2023-05-09T02:22:26.365Z,100.00
2023-05-09T02:24:53.199Z,100.00
2023-05-09T02:27:21.412Z,100.00
2023-05-09T02:29:51.689Z,100.00
2023-05-09T02:32:25.903Z,100.00
2023-05-09T02:34:54.193Z,100.00
2023-05-09T02:37:21.865Z,100.00
2023-05-09T02:39:48.689Z,100.00
2023-05-09T02:42:25.604Z,100.00
2023-05-09T02:44:53.865Z,100.00
2023-05-09T02:47:21.358Z,100.00
2023-05-09T02:49:48.553Z,100.00
2023-05-09T02:52:15.378Z,100.00
2023-05-09T02:54:42.103Z,100.00
2023-05-09T02:57:09.055Z,100.00
2023-05-09T02:59:35.952Z,100.00
2023-05-09T03:02:02.826Z,100.00
2023-05-09T03:04:29.590Z,100.00
2023-05-09T03:06:56.319Z,100.00
2023-05-09T03:09:23.052Z,100.00
2023-05-09T03:11:50.370Z,100.00
2023-05-09T03:14:17.128Z,100.00
2023-05-09T03:16:43.947Z,100.00
2023-05-09T03:19:10.758Z,100.00
2023-05-09T03:21:37.532Z,100.00
2023-05-09T03:24:04.911Z,100.00
2023-05-09T03:26:31.703Z,100.00
2023-05-09T03:28:58.961Z,100.00
2023-05-09T03:31:25.871Z,100.00
2023-05-09T03:33:52.701Z,100.00
2023-05-09T03:36:19.476Z,100.00
2023-05-09T03:38:46.227Z,100.00
2023-05-09T03:41:15.390Z,100.00
2023-05-09T03:43:42.141Z,100.00
2023-05-09T03:46:09.074Z,100.00
2023-05-09T03:48:35.880Z,100.00
2023-05-09T03:51:03.164Z,100.00
2023-05-09T03:53:29.861Z,100.00
2023-05-09T03:55:56.598Z,100.00
2023-05-09T03:58:23.291Z,100.00
2023-05-09T04:00:50.177Z,100.00
2023-05-09T04:03:17.087Z,100.00
2023-05-09T04:05:43.841Z,100.00
2023-05-09T04:08:11.696Z,100.00
2023-05-09T04:10:38.398Z,100.00
2023-05-09T04:13:05.218Z,100.00
2023-05-09T04:15:32.047Z,100.00
2023-05-09T04:17:59.192Z,100.00
2023-05-09T04:20:26.086Z,100.00
2023-05-09T04:22:52.758Z,100.00
2023-05-09T04:25:24.773Z,100.00
2023-05-09T04:27:58.341Z,100.00
2023-05-09T04:30:29.298Z,100.00
2023-05-09T04:32:57.034Z,100.00
2023-05-09T04:35:24.838Z,100.00
2023-05-09T04:37:52.068Z,100.00
2023-05-09T04:40:19.172Z,100.00
2023-05-09T04:42:48.703Z,100.00
2023-05-09T04:45:15.835Z,100.00
2023-05-09T04:47:42.840Z,100.00
2023-05-09T04:50:10.046Z,100.00
2023-05-09T04:52:36.886Z,100.00
2023-05-09T04:55:03.703Z,100.00
2023-05-09T04:57:30.562Z,100.00
2023-05-09T04:59:57.278Z,100.00
2023-05-09T05:02:25.333Z,100.00
2023-05-09T05:04:56.121Z,100.00
2023-05-09T05:07:26.942Z,100.00
2023-05-09T05:09:53.635Z,100.00
2023-05-09T05:12:20.323Z,100.00
2023-05-09T05:14:47.104Z,100.00
2023-05-09T05:17:13.842Z,100.00
2023-05-09T05:19:40.553Z,100.00
2023-05-09T05:22:07.277Z,100.00
2023-05-09T05:24:33.935Z,100.00
2023-05-09T05:27:00.941Z,100.00
2023-05-09T05:29:27.661Z,100.00
2023-05-09T05:31:54.495Z,100.00
2023-05-09T05:34:21.233Z,100.00
2023-05-09T05:36:47.991Z,100.00
2023-05-09T05:39:14.766Z,100.00
2023-05-09T05:41:41.464Z,100.00
2023-05-09T05:44:08.417Z,100.00
2023-05-09T05:46:35.249Z,100.00
2023-05-09T05:49:01.902Z,100.00
2023-05-09T05:51:28.636Z,100.00
2023-05-09T05:53:55.369Z,100.00
2023-05-09T05:56:22.873Z,100.00
2023-05-09T05:58:49.589Z,100.00
2023-05-09T06:01:16.318Z,100.00
2023-05-09T06:03:43.168Z,100.00
2023-05-09T06:06:10.560Z,100.00
2023-05-09T06:08:37.273Z,100.00
2023-05-09T06:11:05.952Z,100.00
2023-05-09T06:13:32.691Z,100.00
2023-05-09T06:16:07.779Z,100.00
2023-05-09T06:18:42.249Z,100.00
2023-05-09T06:21:09.143Z,100.00
2023-05-09T06:23:38.058Z,91.75
2023-05-09T06:26:07.192Z,91.08
2023-05-09T06:28:33.916Z,88.72
2023-05-09T06:31:01.797Z,88.96
2023-05-09T06:33:28.521Z,90.53
2023-05-09T06:35:55.393Z,82.98
2023-05-09T06:38:22.090Z,83.67
2023-05-09T06:40:48.764Z,83.01
2023-05-09T06:43:15.586Z,85.40
2023-05-09T06:45:42.350Z,82.77
2023-05-09T06:48:09.094Z,85.11
2023-05-09T06:50:35.861Z,83.39
2023-05-09T06:53:02.534Z,85.78
2023-05-09T06:55:29.599Z,85.70
2023-05-09T06:57:56.396Z,87.89
2023-05-09T07:00:23.442Z,92.22
2023-05-09T07:02:50.253Z,91.69
2023-05-09T07:05:17.488Z,94.35
2023-05-09T07:07:44.435Z,94.31
2023-05-09T07:10:12.522Z,90.61
2023-05-09T07:12:40.412Z,89.54
2023-05-09T07:15:07.927Z,85.32
2023-05-09T07:17:34.769Z,85.61
2023-05-09T07:20:04.037Z,81.19
2023-05-09T07:22:32.126Z,86.77
2023-05-09T07:24:59.875Z,90.88
2023-05-09T07:27:26.652Z,90.71
2023-05-09T07:29:53.462Z,89.19
2023-05-09T07:32:20.207Z,82.38
2023-05-09T07:34:47.387Z,82.14
2023-05-09T07:37:15.520Z,79.66
2023-05-09T07:39:43.168Z,77.52
2023-05-09T07:42:09.960Z,76.05
2023-05-09T07:44:36.665Z,72.46
2023-05-09T07:47:05.404Z,71.10
2023-05-09T07:49:32.890Z,65.70
2023-05-09T07:51:59.689Z,65.23
2023-05-09T07:54:26.823Z,65.54
2023-05-09T07:56:53.920Z,65.11
2023-05-09T07:59:20.683Z,65.16
2023-05-09T08:01:47.516Z,68.24
2023-05-09T08:04:14.437Z,66.40
2023-05-09T08:06:41.223Z,70.83
2023-05-09T08:09:07.979Z,65.05
2023-05-09T08:11:36.186Z,63.45
2023-05-09T08:14:03.399Z,62.89
2023-05-09T08:16:30.334Z,67.07
2023-05-09T08:18:57.175Z,64.01
2023-05-09T08:21:23.902Z,65.40
2023-05-09T08:23:50.725Z,63.81
2023-05-09T08:26:17.417Z,64.44
2023-05-09T08:28:44.166Z,63.95
2023-05-09T08:31:10.947Z,63.07
2023-05-09T08:33:39.318Z,64.11
2023-05-09T08:36:07.486Z,62.99
2023-05-09T08:38:36.402Z,63.76
2023-05-09T08:41:03.664Z,62.83
2023-05-09T08:43:33.411Z,61.12
2023-05-09T08:46:03.763Z,64.18
2023-05-09T08:48:33.454Z,60.91
2023-05-09T08:51:02.255Z,60.09
2023-05-09T08:53:29.386Z,59.83
2023-05-09T08:55:58.515Z,59.98
2023-05-09T08:58:25.276Z,60.83
2023-05-09T09:00:52.781Z,56.39
2023-05-09T09:03:20.332Z,55.11
2023-05-09T09:05:48.645Z,53.45
2023-05-09T09:08:15.752Z,56.53
2023-05-09T09:10:47.206Z,53.16
2023-05-09T09:13:15.532Z,56.80
2023-05-09T09:15:45.334Z,54.69
2023-05-09T09:18:13.468Z,52.83
2023-05-09T09:20:51.329Z,55.39
2023-05-09T09:23:20.644Z,54.87
2023-05-09T09:25:48.428Z,53.21
2023-05-09T09:28:15.859Z,54.43
2023-05-09T09:30:48.844Z,52.64
2023-05-09T09:33:26.006Z,53.10
2023-05-09T09:35:54.508Z,52.59
2023-05-09T09:38:22.517Z,53.40
2023-05-09T09:40:52.115Z,53.32
2023-05-09T09:43:19.301Z,49.91
2023-05-09T09:45:51.137Z,48.69
2023-05-09T09:48:17.889Z,50.70
2023-05-09T09:50:48.515Z,50.49
2023-05-09T09:53:15.249Z,52.26
2023-05-09T09:55:50.973Z,49.00
2023-05-09T09:58:19.062Z,49.72
2023-05-09T10:00:46.393Z,49.88
2023-05-09T10:03:17.801Z,51.01
2023-05-09T10:05:45.126Z,47.29
2023-05-09T10:08:12.103Z,48.48
2023-05-09T10:10:38.868Z,50.29
2023-05-09T10:13:09.657Z,49.75
2023-05-09T10:15:49.433Z,48.96
2023-05-09T10:18:25.424Z,49.73
2023-05-09T10:20:53.542Z,49.13
2023-05-09T10:23:21.475Z,47.69
2023-05-09T10:25:56.151Z,47.83
2023-05-09T10:28:27.565Z,48.70
2023-05-09T10:31:06.381Z,47.62
2023-05-09T10:34:08.484Z,47.10
2023-05-09T10:36:35.638Z,47.92
2023-05-09T10:39:02.487Z,47.28
2023-05-09T10:41:29.298Z,46.46
2023-05-09T10:43:58.408Z,46.53
2023-05-09T10:46:27.352Z,44.61
2023-05-09T10:48:54.391Z,44.61
2023-05-09T10:51:21.765Z,45.84
2023-05-09T10:53:51.018Z,45.87
2023-05-09T10:56:30.725Z,45.72
2023-05-09T10:58:57.587Z,46.91
2023-05-09T11:01:35.503Z,47.41
2023-05-09T11:04:10.080Z,46.96
2023-05-09T11:06:51.246Z,45.35
2023-05-09T11:09:35.636Z,46.44
2023-05-09T11:12:05.449Z,44.81
2023-05-09T11:14:44.638Z,45.63
2023-05-09T11:17:24.641Z,46.15
2023-05-09T11:19:51.477Z,44.30
2023-05-09T11:22:24.704Z,44.52
2023-05-09T11:24:59.349Z,44.16
2023-05-09T11:27:28.554Z,44.66
2023-05-09T11:29:59.860Z,44.34
2023-05-09T11:32:34.449Z,44.60
2023-05-09T11:35:09.789Z,43.37
2023-05-09T11:38:01.535Z,44.23
2023-05-09T11:40:30.057Z,43.67
2023-05-09T11:42:58.736Z,41.94
2023-05-09T11:45:30.588Z,42.61
2023-05-09T11:47:57.924Z,44.57
2023-05-09T11:50:25.222Z,44.50
2023-05-09T11:52:52.176Z,44.92
2023-05-09T11:55:23.033Z,44.00
2023-05-09T11:57:52.416Z,44.13
2023-05-09T12:00:21.573Z,43.93
2023-05-09T12:02:49.209Z,42.79
2023-05-09T12:05:18.717Z,44.22
2023-05-09T12:07:46.260Z,43.33
2023-05-09T12:10:16.008Z,43.75
2023-05-09T12:12:48.439Z,43.15
2023-05-09T12:15:16.109Z,43.19
2023-05-09T12:17:45.062Z,44.11
2023-05-09T12:20:12.312Z,43.11
2023-05-09T12:22:43.782Z,44.45
2023-05-09T12:25:12.226Z,44.51
2023-05-09T12:27:40.928Z,43.17
2023-05-09T12:30:10.594Z,44.20
2023-05-09T12:32:40.606Z,45.30
2023-05-09T12:35:10.602Z,42.05
2023-05-09T12:37:37.929Z,42.34
2023-05-09T12:40:16.001Z,42.41
2023-05-09T12:42:46.416Z,43.47
2023-05-09T12:45:14.297Z,42.46
2023-05-09T12:47:45.803Z,42.10
2023-05-09T12:50:13.524Z,43.74
2023-05-09T12:52:58.453Z,43.71
2023-05-09T12:55:29.601Z,42.73
2023-05-09T12:58:03.818Z,43.33
2023-05-09T13:00:43.352Z,42.92
2023-05-09T13:03:25.341Z,45.06
2023-05-09T13:06:01.900Z,44.47
2023-05-09T13:08:29.589Z,43.75
2023-05-09T13:11:14.921Z,44.39
2023-05-09T13:13:43.297Z,43.23
2023-05-09T13:16:10.709Z,43.22
2023-05-09T13:18:38.820Z,43.20
2023-05-09T13:21:05.732Z,44.00
2023-05-09T13:23:32.587Z,44.17
2023-05-09T13:25:59.284Z,43.76
2023-05-09T13:28:26.199Z,43.78
2023-05-09T13:30:52.959Z,43.04
2023-05-09T13:33:25.945Z,43.54
2023-05-09T13:35:53.474Z,42.91
2023-05-09T13:38:20.229Z,43.20
2023-05-09T13:40:46.956Z,42.83
2023-05-09T13:43:13.844Z,42.64
2023-05-09T13:45:40.716Z,42.99
2023-05-09T13:48:09.656Z,43.17
2023-05-09T13:50:36.542Z,43.37
2023-05-09T13:53:03.489Z,43.54
2023-05-09T13:55:31.054Z,43.46
2023-05-09T13:57:57.907Z,43.07
2023-05-09T14:00:27.688Z,44.51
2023-05-09T14:02:54.600Z,43.11
2023-05-09T14:05:21.551Z,42.61
2023-05-09T14:07:48.502Z,44.48
2023-05-09T14:10:16.059Z,43.32
2023-05-09T14:12:47.407Z,43.38
2023-05-09T14:15:14.522Z,44.12
2023-05-09T14:17:41.409Z,44.61
2023-05-09T14:20:08.852Z,44.20
2023-05-09T14:22:35.658Z,44.36
2023-05-09T14:25:02.540Z,45.29
2023-05-09T14:27:29.293Z,44.15
2023-05-09T14:29:56.385Z,45.06
2023-05-09T14:32:23.247Z,45.09
2023-05-09T14:34:51.049Z,44.46
2023-05-09T14:37:17.899Z,45.94
2023-05-09T14:39:47.804Z,44.60
2023-05-09T14:42:16.893Z,45.34
2023-05-09T14:44:44.860Z,45.19
2023-05-09T14:47:12.230Z,44.45
2023-05-09T14:49:41.613Z,43.47
2023-05-09T14:52:08.336Z,44.15
2023-05-09T14:54:35.115Z,42.88
2023-05-09T14:57:04.719Z,43.21
2023-05-09T14:59:31.446Z,44.23
2023-05-09T15:01:58.300Z,42.93
2023-05-09T15:04:28.416Z,43.39
2023-05-09T15:06:55.340Z,44.09
2023-05-09T15:09:22.589Z,43.68
2023-05-09T15:11:49.493Z,44.68
2023-05-09T15:14:17.000Z,44.47
2023-05-09T15:16:44.345Z,43.92
2023-05-09T15:19:13.424Z,44.48
2023-05-09T15:21:40.236Z,44.98
2023-05-09T15:24:07.151Z,44.76
2023-05-09T15:26:34.155Z,44.47
2023-05-09T15:29:02.462Z,44.96
2023-05-09T15:31:33.851Z,46.07
2023-05-09T15:34:01.426Z,45.64
2023-05-09T15:36:31.187Z,46.16
2023-05-09T15:38:57.831Z,46.89
2023-05-09T15:41:25.115Z,46.94
2023-05-09T15:43:58.159Z,46.82
2023-05-09T15:46:24.998Z,46.16
2023-05-09T15:48:53.406Z,46.30
2023-05-09T15:51:21.584Z,47.19
2023-05-09T15:53:49.621Z,46.88
2023-05-09T15:56:16.318Z,47.24
2023-05-09T15:58:43.055Z,46.97
2023-05-09T16:01:13.044Z,48.10
2023-05-09T16:03:40.039Z,47.38
2023-05-09T16:06:07.344Z,48.81
2023-05-09T16:08:34.159Z,48.66
2023-05-09T16:11:02.086Z,49.50
2023-05-09T16:13:30.073Z,48.42
2023-05-09T16:15:57.167Z,49.18
2023-05-09T16:18:24.016Z,48.91
2023-05-09T16:20:50.812Z,49.48
2023-05-09T16:23:17.724Z,49.79
2023-05-09T16:25:45.081Z,50.14
2023-05-09T16:28:12.123Z,50.05
2023-05-09T16:30:38.934Z,50.48
2023-05-09T16:33:05.754Z,50.70
2023-05-09T16:35:32.688Z,51.30
2023-05-09T16:37:59.578Z,51.14
2023-05-09T16:40:26.347Z,51.21
2023-05-09T16:42:53.994Z,51.92
2023-05-09T16:45:20.909Z,52.71
2023-05-09T16:47:47.644Z,52.79
2023-05-09T16:50:14.617Z,52.52
2023-05-09T16:52:41.599Z,53.15
2023-05-09T16:55:08.746Z,53.65
2023-05-09T16:57:35.464Z,53.99
2023-05-09T17:00:02.245Z,54.92
2023-05-09T17:02:29.129Z,54.40
2023-05-09T17:04:56.229Z,54.85
2023-05-09T17:07:23.156Z,54.97
2023-05-09T17:09:50.029Z,54.98
2023-05-09T17:12:18.428Z,56.06
2023-05-09T17:14:46.072Z,56.45
2023-05-09T17:17:13.868Z,57.13
2023-05-09T17:19:41.070Z,57.68
2023-05-09T17:22:08.237Z,57.85
2023-05-09T17:24:34.973Z,59.36
2023-05-09T17:27:01.932Z,58.90
2023-05-09T17:29:30.748Z,60.64
2023-05-09T17:32:00.744Z,60.73
2023-05-09T17:34:28.808Z,63.16
2023-05-09T17:36:56.511Z,63.15
2023-05-09T17:39:23.926Z,62.90
2023-05-09T17:41:50.674Z,63.01
2023-05-09T17:44:17.410Z,62.73
2023-05-09T17:46:44.249Z,64.80
2023-05-09T17:49:14.119Z,65.50
2023-05-09T17:51:41.215Z,66.48
2023-05-09T17:54:08.111Z,67.14
2023-05-09T17:56:35.059Z,67.24
2023-05-09T17:59:02.011Z,67.25
2023-05-09T18:01:30.090Z,68.04
2023-05-09T18:03:57.167Z,68.94
2023-05-09T18:06:24.256Z,69.80
2023-05-09T18:08:51.119Z,69.65
2023-05-09T18:11:17.979Z,71.51
2023-05-09T18:13:44.775Z,72.97
2023-05-09T18:16:11.532Z,76.23
2023-05-09T18:18:38.305Z,76.93
2023-05-09T18:21:05.533Z,80.10
2023-05-09T18:23:32.202Z,84.34
2023-05-09T18:25:59.048Z,84.13
2023-05-09T18:28:26.066Z,91.92
2023-05-09T18:31:02.342Z,99.49
2023-05-09T18:33:29.146Z,95.95
2023-05-09T18:35:56.084Z,97.05
2023-05-09T18:38:22.899Z,94.59
2023-05-09T18:40:51.919Z,96.85
2023-05-09T18:43:21.050Z,92.00
2023-05-09T18:45:48.688Z,99.38
2023-05-09T18:48:16.895Z,98.02
2023-05-09T18:50:43.663Z,100.00
2023-05-09T18:53:11.125Z,100.00
2023-05-09T18:55:38.227Z,100.00
2023-05-09T18:58:05.451Z,100.00
2023-05-09T19:00:32.611Z,100.00
2023-05-09T19:02:59.806Z,100.00
2023-05-09T19:05:28.603Z,100.00
2023-05-09T19:07:55.379Z,100.00
2023-05-09T19:10:22.797Z,100.00
2023-05-09T19:12:50.657Z,100.00
2023-05-09T19:15:18.251Z,100.00
2023-05-09T19:17:45.715Z,100.00
2023-05-09T19:20:13.652Z,100.00
2023-05-09T19:22:47.291Z,100.00
2023-05-09T19:25:14.246Z,100.00
2023-05-09T19:27:41.660Z,100.00
2023-05-09T19:30:09.402Z,100.00
2023-05-09T19:32:37.766Z,100.00
2023-05-09T19:35:05.780Z,100.00
2023-05-09T19:37:34.267Z,100.00
2023-05-09T19:40:05.809Z,100.00
2023-05-09T19:42:34.465Z,100.00
2023-05-09T19:45:02.419Z,100.00
2023-05-09T19:47:29.978Z,100.00
2023-05-09T19:49:57.725Z,100.00
2023-05-09T19:52:24.664Z,100.00
2023-05-09T19:54:51.978Z,100.00
2023-05-09T19:57:19.100Z,100.00
2023-05-09T19:59:47.461Z,100.00
2023-05-09T20:02:14.199Z,100.00
2023-05-09T20:04:46.694Z,100.00
2023-05-09T20:07:14.015Z,100.00
2023-05-09T20:09:41.500Z,100.00
2023-05-09T20:12:10.341Z,100.00
2023-05-09T20:14:37.885Z,100.00
2023-05-09T20:17:06.134Z,100.00
2023-05-09T20:19:33.916Z,100.00
2023-05-09T20:22:02.550Z,100.00
2023-05-09T20:24:32.060Z,100.00
2023-05-09T20:26:59.612Z,100.00
2023-05-09T20:29:26.967Z,100.00
2023-05-09T20:31:54.399Z,100.00
2023-05-09T20:34:23.549Z,100.00
2023-05-09T20:36:54.018Z,100.00
2023-05-09T20:39:22.210Z,100.00
2023-05-09T20:41:50.858Z,100.00
2023-05-09T20:44:18.960Z,100.00
2023-05-09T20:46:46.763Z,100.00
2023-05-09T20:49:14.130Z,100.00
2023-05-09T20:51:41.346Z,100.00
2023-05-09T20:54:08.152Z,100.00
2023-05-09T20:56:35.616Z,100.00
2023-05-09T20:59:04.310Z,100.00
2023-05-09T21:01:32.598Z,100.00
2023-05-09T21:03:59.680Z,100.00
2023-05-09T21:06:26.384Z,100.00
2023-05-09T21:08:53.057Z,100.00
2023-05-09T21:11:19.754Z,100.00
2023-05-09T21:13:46.453Z,100.00
2023-05-09T21:16:13.124Z,100.00
2023-05-09T21:18:39.775Z,100.00
2023-05-09T21:21:08.261Z,100.00
2023-05-09T21:23:35.521Z,100.00
2023-05-09T21:26:02.592Z,100.00
2023-05-09T21:28:29.578Z,100.00
2023-05-09T21:30:56.510Z,100.00
2023-05-09T21:33:23.276Z,100.00
2023-05-09T21:35:49.983Z,100.00
2023-05-09T21:38:16.638Z,100.00
2023-05-09T21:40:43.313Z,100.00
2023-05-09T21:43:09.976Z,100.00
2023-05-09T21:45:36.649Z,100.00
2023-05-09T21:48:03.583Z,100.00
2023-05-09T21:50:30.391Z,100.00
2023-05-09T21:52:58.018Z,100.00
2023-05-09T21:55:24.841Z,100.00
2023-05-09T21:57:51.558Z,100.00
2023-05-09T22:00:18.778Z,100.00
2023-05-09T22:02:45.718Z,100.00
2023-05-09T22:05:12.739Z,100.00
2023-05-09T22:07:39.443Z,100.00
2023-05-09T22:10:07.177Z,100.00
2023-05-09T22:12:33.921Z,100.00
2023-05-09T22:15:00.724Z,100.00
2023-05-09T22:17:27.410Z,100.00
2023-05-09T22:19:54.186Z,100.00
2023-05-09T22:22:21.492Z,100.00
2023-05-09T22:24:49.805Z,100.00
2023-05-09T22:27:16.575Z,100.00
2023-05-09T22:29:43.225Z,100.00
2023-05-09T22:32:10.037Z,100.00
2023-05-09T22:34:36.797Z,100.00
2023-05-09T22:37:03.576Z,100.00
2023-05-09T22:39:31.002Z,100.00
2023-05-09T22:41:57.737Z,100.00
2023-05-09T22:44:24.496Z,100.00
2023-05-09T22:46:51.173Z,100.00
2023-05-09T22:49:17.930Z,100.00
2023-05-09T22:51:44.645Z,100.00
2023-05-09T22:54:11.324Z,100.00
2023-05-09T22:56:38.064Z,100.00
2023-05-09T22:59:04.844Z,100.00
2023-05-09T23:03:33.387Z,100.00
2023-05-09T23:06:00.180Z,100.00
2023-05-09T23:08:26.879Z,100.00
2023-05-09T23:10:53.634Z,100.00
2023-05-09T23:13:20.402Z,100.00
2023-05-09T23:15:48.269Z,100.00
2023-05-09T23:18:15.023Z,100.00
2023-05-09T23:20:41.675Z,100.00
2023-05-09T23:23:08.456Z,100.00
2023-05-09T23:25:35.161Z,100.00
2023-05-09T23:28:02.298Z,100.00
2023-05-09T23:30:29.041Z,100.00
2023-05-09T23:32:56.377Z,100.00
2023-05-09T23:35:23.287Z,100.00
2023-05-09T23:37:50.006Z,100.00
2023-05-09T23:40:16.870Z,100.00
2023-05-09T23:42:43.970Z,100.00
2023-05-09T23:45:10.844Z,100.00
2023-05-09T23:47:37.620Z,100.00
2023-05-09T23:50:04.653Z,100.00
2023-05-09T23:52:31.706Z,100.00
2023-05-09T23:54:58.362Z,100.00
2023-05-09T23:57:26.449Z,100.00
2023-05-09T23:59:53.199Z,100.00
